Flight Track Log - Related Links

Times and Time Zones

All times are in EDT time to prevent confusion due to time zone crossing. See the TAM8005 flight status page for this flight to view local times or setup timezone preferences in your user account.

Time Position Orientation Groundspeed Altitude Reporting Facility
EDT Latitude Longitude Course Direction KTS MPH feet Rate Location/Type
Thu 02:45:00 PM -32.5637 -55.9716 46° Northeast  Level Estimated
Thu 02:46:00 PM -32.4940 -55.8893 45° Northeast  Level Estimated
Thu 02:47:00 PM -32.4243 -55.8071 45° Northeast  Level Estimated
Thu 02:48:00 PM -32.3546 -55.7251 45° Northeast  Level Estimated
Thu 02:49:00 PM -32.2848 -55.6432 45° Northeast  Level Estimated
Thu 02:50:00 PM -32.2149 -55.5614 45° Northeast  Level Estimated
Thu 02:51:00 PM -32.1450 -55.4797 45° Northeast  Level Estimated
Thu 02:52:00 PM -32.0750 -55.3982 45° Northeast  Level Estimated
Thu 02:53:00 PM -32.0050 -55.3168 45° Northeast  Level Estimated
Thu 02:54:00 PM -31.9349 -55.2355 45° Northeast  Level Estimated
Thu 02:55:00 PM -31.8648 -55.1543 45° Northeast  Level Estimated
Thu 02:56:00 PM -31.7946 -55.0733 44° Northeast  Level Estimated
Thu 02:57:00 PM -31.7244 -54.9924 44° Northeast  Level Estimated
Thu 02:58:00 PM -31.6541 -54.9115 44° Northeast  Level Estimated
Thu 02:59:00 PM -31.5838 -54.8309 44° Northeast  Level Estimated
Thu 03:00:00 PM -31.5134 -54.7503 44° Northeast  Level Estimated
Thu 03:01:00 PM -31.4430 -54.6699 44° Northeast  Level Estimated
Thu 03:02:00 PM -31.3725 -54.5896 44° Northeast  Level Estimated
Thu 03:03:00 PM -31.3020 -54.5094 44° Northeast  Level Estimated
Thu 03:04:00 PM -31.2314 -54.4293 44° Northeast  Level Estimated
Thu 03:05:00 PM -31.1608 -54.3494 44° Northeast  Level Estimated
Thu 03:06:00 PM -31.0901 -54.2696 44° Northeast  Level Estimated
Thu 03:07:00 PM -31.0194 -54.1898 44° Northeast  Level Estimated
Thu 03:08:00 PM -30.9486 -54.1102 44° Northeast  Level Estimated
Thu 03:09:00 PM -30.8778 -54.0308 44° Northeast  Level Estimated
Thu 03:10:00 PM -30.8069 -53.9514 44° Northeast  Level Estimated
Thu 03:11:00 PM -30.7360 -53.8722 44° Northeast  Level Estimated
Thu 03:12:00 PM -30.6650 -53.7930 44° Northeast  Level Estimated
Thu 03:13:00 PM -30.5940 -53.7140 44° Northeast  Level Estimated
Thu 03:14:00 PM -30.5229 -53.6351 44° Northeast  Level Estimated
Thu 03:15:00 PM -30.4518 -53.5564 44° Northeast  Level Estimated
Thu 03:16:00 PM -30.3807 -53.4777 44° Northeast  Level Estimated
Thu 03:17:00 PM -30.3095 -53.3992 44° Northeast  Level Estimated
Thu 03:18:00 PM -30.2382 -53.3207 44° Northeast  Level Estimated
Thu 03:19:00 PM -30.1669 -53.2424 44° Northeast  Level Estimated
Thu 03:20:00 PM -30.0956 -53.1642 43° Northeast  Level Estimated
Thu 03:21:00 PM -30.0242 -53.0861 43° Northeast  Level Estimated
Thu 03:22:00 PM -29.9527 -53.0081 43° Northeast  Level Estimated
Thu 03:23:00 PM -29.8813 -52.9302 43° Northeast  Level Estimated
Thu 03:24:00 PM -29.8097 -52.8525 43° Northeast  Level Estimated
Thu 03:25:00 PM -29.7381 -52.7748 43° Northeast  Level Estimated
Thu 03:26:00 PM -29.6665 -52.6973 43° Northeast  Level Estimated
Thu 03:27:00 PM -29.5949 -52.6199 43° Northeast  Level Estimated
Thu 03:28:00 PM -29.5232 -52.5425 43° Northeast  Level Estimated
Thu 03:29:00 PM -29.4514 -52.4653 43° Northeast  Level Estimated
Thu 03:30:00 PM -29.3796 -52.3882 43° Northeast  Level Estimated
Thu 03:31:00 PM -29.3078 -52.3112 43° Northeast  Level Estimated
Thu 03:32:00 PM -29.2359 -52.2344 43° Northeast  Level Estimated
Thu 03:33:00 PM -29.1639 -52.1576 43° Northeast  Level Estimated
Thu 03:34:00 PM -29.0920 -52.0809 43° Northeast  Level Estimated
Thu 03:35:00 PM -29.0200 -52.0044 43° Northeast  Level Estimated
Thu 03:36:00 PM -28.9479 -51.9279 43° Northeast  Level Estimated
Thu 03:37:00 PM -28.8758 -51.8516 43° Northeast  Level Estimated
Thu 03:38:00 PM -28.8036 -51.7753 43° Northeast  Level Estimated
Thu 03:39:00 PM -28.7315 -51.6992 43° Northeast  Level Estimated
Thu 03:40:00 PM -28.6592 -51.6232 43° Northeast  Level Estimated
Thu 03:41:00 PM -28.5870 -51.5473 43° Northeast  Level Estimated
Thu 03:42:00 PM -28.5146 -51.4714 43° Northeast  Level Estimated
Thu 03:43:00 PM -28.4423 -51.3957 43° Northeast  Level Estimated
Thu 03:44:00 PM -28.3699 -51.3201 43° Northeast  Level Estimated
Thu 03:45:00 PM -28.2974 -51.2446 43° Northeast  Level Estimated
Thu 03:46:00 PM -28.2250 -51.1692 43° Northeast  Level Estimated
Thu 03:47:00 PM -28.1524 -51.0939 42° Northeast  Level Estimated
Thu 03:48:00 PM -28.0798 -51.0187 42° Northeast  Level Estimated
Thu 03:49:00 PM -28.0072 -50.9436 42° Northeast  Level Estimated
Thu 03:50:00 PM -27.9346 -50.8686 42° Northeast  Level Estimated
Thu 03:51:00 PM -27.8619 -50.7937 42° Northeast  Level Estimated
Thu 03:52:00 PM -27.7892 -50.7189 42° Northeast  Level Estimated
Thu 03:53:00 PM -27.7164 -50.6442 42° Northeast  Level Estimated
Thu 03:54:00 PM -27.6436 -50.5696 42° Northeast  Level Estimated
Thu 03:55:00 PM -27.5707 -50.4951 42° Northeast  Level Estimated
Thu 03:56:00 PM -27.4979 -50.4207 42° Northeast  Level Estimated
Thu 03:57:00 PM -27.4249 -50.3464 42° Northeast  Level Estimated
Thu 03:58:00 PM -27.3519 -50.2722 42° Northeast  Level Estimated
Thu 03:59:00 PM -27.2789 -50.1981 42° Northeast  Level Estimated
Thu 04:00:00 PM -27.2059 -50.1241 42° Northeast  Level Estimated
Thu 04:01:00 PM -27.1328 -50.0502 42° Northeast  Level Estimated
Thu 04:02:00 PM -27.0597 -49.9763 42° Northeast  Level Estimated
Thu 04:03:00 PM -26.9865 -49.9026 42° Northeast  Level Estimated
Thu 04:04:00 PM -26.9133 -49.8290 42° Northeast  Level Estimated
Thu 04:05:00 PM -26.8401 -49.7555 42° Northeast  Level Estimated
Thu 04:06:00 PM -26.7668 -49.6820 42° Northeast  Level Estimated
Thu 04:07:00 PM -26.6935 -49.6087 42° Northeast  Level Estimated
Thu 04:08:00 PM -26.6201 -49.5355 42° Northeast  Level Estimated
Thu 04:09:00 PM -26.5467 -49.4623 42° Northeast  Level Estimated
Thu 04:10:00 PM -26.4733 -49.3893 42° Northeast  Level Estimated
Thu 04:11:00 PM -26.3999 -49.3163 42° Northeast  Level Estimated
Thu 04:12:00 PM -26.3264 -49.2434 42° Northeast  Level Estimated
Thu 04:13:00 PM -26.2528 -49.1707 42° Northeast  Level Estimated
Thu 04:14:00 PM -26.1793 -49.0980 42° Northeast  Level Estimated
Thu 04:15:00 PM -26.1056 -49.0254 42° Northeast  Level Estimated
Thu 04:16:00 PM -26.0320 -48.9529 42° Northeast  Level Estimated
Thu 04:17:00 PM -25.9583 -48.8805 41° Northeast  Level Estimated
Thu 04:18:00 PM -25.8846 -48.8082 41° Northeast  Level Estimated
Thu 04:19:00 PM -25.8108 -48.7359 41° Northeast  Level Estimated
Thu 04:20:00 PM -25.7370 -48.6638 41° Northeast  Level Estimated
Thu 04:21:00 PM -25.6632 -48.5917 41° Northeast  Level Estimated
Thu 04:22:00 PM -25.5893 -48.5198 41° Northeast  Level Estimated
Thu 04:23:00 PM -25.5154 -48.4479 41° Northeast  Level Estimated
Thu 04:24:00 PM -25.4415 -48.3761 41° Northeast  Level Estimated
Thu 04:25:00 PM -25.3675 -48.3044 41° Northeast  Level Estimated
Thu 04:26:00 PM -25.2936 -48.2328 41° Northeast  Level Estimated
Thu 04:27:00 PM -25.2195 -48.1613 41° Northeast  Level Estimated
Thu 04:28:00 PM -25.1454 -48.0899 41° Northeast  Level Estimated
Thu 04:29:00 PM -25.0713 -48.0185 41° Northeast  Level Estimated
Thu 04:30:00 PM -24.9972 -47.9473 41° Northeast  Level Estimated
Thu 04:31:00 PM -24.9230 -47.8761 41° Northeast  Level Estimated
Thu 04:32:00 PM -24.8488 -47.8050 41° Northeast  Level Estimated
Thu 04:33:00 PM -24.7746 -47.7340 41° Northeast  Level Estimated
Thu 04:34:00 PM -24.7003 -47.6631 41° Northeast  Level Estimated
Thu 04:35:00 PM -24.6260 -47.5922 41° Northeast  Level Estimated
Thu 04:36:00 PM -24.5517 -47.5215 41° Northeast  Level Estimated
Thu 04:37:00 PM -24.4773 -47.4508 41° Northeast  Level Estimated
Thu 04:38:00 PM -24.4029 -47.3802 41° Northeast  Level Estimated
Thu 04:39:00 PM -24.3284 -47.3097 41° Northeast  Level Estimated
Thu 04:40:00 PM -24.2540 -47.2393 41° Northeast  Level Estimated
Thu 04:41:00 PM -24.1795 -47.1690 41° Northeast  Level Estimated
Thu 04:42:00 PM -24.1049 -47.0987 41° Northeast  Level Estimated
Thu 04:43:00 PM -24.0304 -47.0286 41° Northeast  Level Estimated
Thu 04:44:00 PM -23.9558 -46.9585 41° Northeast  Level Estimated
Thu 04:45:00 PM -23.8811 -46.8885 41° Northeast  Level Estimated
Thu 04:46:00 PM -23.8065 -46.8185 41° Northeast  Level Estimated
Thu 04:47:00 PM -23.7318 -46.7487 41° Northeast  Level Estimated
Thu 04:48:00 PM -23.6571 -46.6789 41° Northeast  Level Estimated
Thu 04:49:00 PM -23.5823 -46.6092 41° Northeast  Level Estimated
Thu 04:50:00 PM -23.5075 -46.5396 40° Northeast  Level Estimated
Thu 04:51:00 PM -23.4327 -46.4701 40° Northeast  Level Estimated
Thu 04:52:00 PM -23.4321 -46.4695 40° Northeast  Level Estimated
Thu 04:53:00 PM -23.4321 -46.4695 350° North  Level Estimated
Thu 04:54:00 PM -23.4321 -46.4695 350° North  Level Estimated
Thu 04:55:00 PM -23.4321 -46.4695 350° North  Level Estimated
Thu 04:56:00 PM -23.4321 -46.4695 350° North  Level Estimated
Thu 04:57:00 PM -23.4321 -46.4695 350° North  Level Estimated
Thu 04:58:00 PM -23.4321 -46.4695 350° North  Level Estimated
Thu 04:59:00 PM -23.4321 -46.4695 350° North  Level Estimated
Thu 05:00:00 PM -23.4321 -46.4695 350° North  Level Estimated
Thu 05:01:00 PM -23.4321 -46.4695 350° North  Level Estimated
Thu 05:02:00 PM -23.4321 -46.4695 350° North  Level Estimated
Thu 05:03:00 PM -23.4321 -46.4695 350° North  Level Estimated
Thu 05:04:00 PM -23.4321 -46.4695 350° North  Level Estimated
Thu 05:05:00 PM -23.4321 -46.4695 350° North  Level Estimated
Thu 05:06:00 PM -23.4321 -46.4695 350° North  Level Estimated
Thu 05:07:00 PM -23.4321 -46.4695 350° North  Level Estimated

Login

Don't have an account? Register now (free) for customized features, flight alerts, and more!